TNCE/EUX METAR and TAF weather

Enter ICAO airport designator
Station Type Date Time Source
TNCE METAR 2019/06/26 19:55 UTC NOAA

TNCE 261955Z AUTO 07012KT 040V100 //// // ///////// 30/23 Q1016 RE//


Station Type Date Time Source
TNCE Decoded METAR 2019/06/26 19:55 UTC NOAA

Roosevelt Airport Saint Eustatius, Netherlands Antilles (TNCE) 17-29N 062-59W 39M
Jun 26, 2019 - 03:55 PM EDT / 2019.06.26 1955 UTC
Wind: from the ENE (070 degrees) at 14 MPH (12 KT) (direction variable):0
Temperature: 86 F (30 C)
Heat index: 93.4 F (34.1 C):1
Dew Point: 73 F (23 C)
Relative Humidity: 66%
Pressure (altimeter): 30.00 in. Hg (1016 hPa)
ob: TNCE 261955Z AUTO 07012KT 040V100 //// // ///////// 30/23 Q1016 RE//
cycle: 20

Station Type Date Time Source
TNCE TAF UTC NOAA

Error!

Example: see airport list